Time;durP1;ratioP1;P1;durP2;ratioP2;P2;SDS_P1;SDS_P2;PMS_P1;PMS_P2;Temp;Humidity;BMP_temperature;BMP_pressure;BME280_temperature;BME280_humidity;BME280_pressure;Samples;Min_cycle;Max_cycle;Signal;HPM_P1;HPM_P2
2023/09/13 00:00:52;;;;;;;16.90;15.38;;;18.20;99.90;;;;;;6221362;23;20012;-86
2023/09/13 00:03:18;;;;;;;21.30;13.98;;;18.30;99.90;;;;;;6220764;23;20517;-86
2023/09/13 00:05:46;;;;;;;17.30;15.75;;;18.20;99.90;;;;;;6219182;23;20019;-86
2023/09/13 00:08:12;;;;;;;16.92;10.10;;;18.20;99.90;;;;;;6218883;23;20016;-86
2023/09/13 00:10:37;;;;;;;11.57;10.43;;;18.20;99.90;;;;;;6219262;23;20012;-86
2023/09/13 00:13:06;;;;;;;17.45;10.18;;;18.20;99.90;;;;;;6219862;23;20020;-86
2023/09/13 00:15:34;;;;;;;16.80;10.63;;;18.10;99.90;;;;;;6219812;23;20050;-86
2023/09/13 00:18:01;;;;;;;20.73;15.07;;;18.20;99.90;;;;;;6220728;23;20020;-86
2023/09/13 00:20:30;;;;;;;14.05;9.30;;;18.10;99.90;;;;;;6222231;23;20035;-85
2023/09/13 00:22:55;;;;;;;16.08;9.43;;;18.00;99.90;;;;;;6246576;23;20009;-86
2023/09/13 00:25:24;;;;;;;17.55;9.23;;;18.00;99.90;;;;;;6221389;23;20008;-86
2023/09/13 00:27:50;;;;;;;17.77;13.98;;;17.70;99.90;;;;;;6221670;23;20040;-86
2023/09/13 00:30:16;;;;;;;21.65;19.13;;;17.70;99.90;;;;;;6221263;23;20088;-85
2023/09/13 00:32:41;;;;;;;22.58;19.80;;;17.90;99.90;;;;;;6221826;23;20066;-86
2023/09/13 00:35:07;;;;;;;17.23;8.23;;;17.90;99.90;;;;;;6221326;23;20035;-86
2023/09/13 00:37:33;;;;;;;17.15;15.20;;;17.90;99.90;;;;;;6221734;23;20015;-86
2023/09/13 00:40:08;;;;;;;13.52;9.15;;;17.80;99.90;;;;;;6246862;23;20221;-86
2023/09/13 00:42:37;;;;;;;26.55;20.17;;;17.80;99.90;;;;;;6220926;23;20016;-85
2023/09/13 00:45:03;;;;;;;12.43;8.40;;;17.70;99.90;;;;;;6221074;23;20035;-86
2023/09/13 00:47:35;;;;;;;15.93;9.60;;;17.70;99.90;;;;;;6246811;23;20043;-86
2023/09/13 00:50:07;;;;;;;20.63;15.75;;;17.70;99.90;;;;;;6221373;23;20016;-86
2023/09/13 00:52:32;;;;;;;20.85;15.68;;;17.70;99.90;;;;;;6245265;23;20018;-85
2023/09/13 00:54:58;;;;;;;18.90;16.02;;;17.60;99.90;;;;;;6220880;23;20048;-85
2023/09/13 00:57:25;;;;;;;17.63;12.93;;;17.60;99.90;;;;;;6221277;23;20008;-86
2023/09/13 00:59:51;;;;;;;11.35;9.52;;;17.50;99.90;;;;;;6245891;23;20493;-85
2023/09/13 01:02:17;;;;;;;15.55;10.05;;;17.50;99.90;;;;;;6220767;23;20027;-86
2023/09/13 01:04:42;;;;;;;19.08;17.10;;;17.50;99.90;;;;;;6244960;23;20060;-86
2023/09/13 01:07:11;;;;;;;22.98;18.00;;;17.60;99.90;;;;;;6245254;23;20019;-86
2023/09/13 01:09:37;;;;;;;19.48;17.45;;;17.50;99.90;;;;;;6221073;23;20040;-86
2023/09/13 01:12:06;;;;;;;16.40;12.85;;;17.40;99.90;;;;;;6246050;23;20043;-85
2023/09/13 01:14:35;;;;;;;12.50;8.82;;;17.30;99.90;;;;;;6245588;23;20012;-86
2023/09/13 01:17:14;;;;;;;12.68;7.72;;;17.40;99.90;;;;;;6221403;23;20050;-85
2023/09/13 01:20:09;;;;;;;15.27;13.65;;;17.30;99.90;;;;;;6221635;23;20161;-86
2023/09/13 01:23:13;;;;;;;24.55;22.40;;;17.30;99.90;;;;;;6221539;23;20020;-86
2023/09/13 01:26:18;;;;;;;25.77;23.63;;;17.30;99.90;;;;;;6220862;23;20020;-86
2023/09/13 01:28:47;;;;;;;27.35;24.88;;;17.20;99.90;;;;;;6220503;23;20235;-86
2023/09/13 01:31:17;;;;;;;24.92;22.48;;;17.10;99.90;;;;;;6220326;23;20012;-86
2023/09/13 01:33:44;;;;;;;25.02;22.45;;;17.20;99.90;;;;;;6246827;23;20012;-86
2023/09/13 01:36:10;;;;;;;20.13;18.23;;;17.10;99.90;;;;;;6219711;23;20087;-86
2023/09/13 01:38:36;;;;;;;18.02;16.17;;;17.00;99.90;;;;;;6246276;23;20023;-86
2023/09/13 01:41:08;;;;;;;16.17;8.23;;;17.00;99.90;;;;;;6220596;23;20048;-86
2023/09/13 01:43:35;;;;;;;22.75;20.80;;;17.00;99.90;;;;;;6221261;23;20019;-86
2023/09/13 01:46:04;;;;;;;23.48;20.80;;;17.00;99.90;;;;;;6220422;23;20077;-86
2023/09/13 01:48:31;;;;;;;12.45;8.25;;;17.00;99.90;;;;;;6219703;23;20028;-86
2023/09/13 01:50:57;;;;;;;22.25;16.42;;;17.10;99.90;;;;;;6270727;22;20026;-85
2023/09/13 01:53:23;;;;;;;17.65;15.23;;;16.90;99.90;;;;;;6246111;23;20012;-86
2023/09/13 01:55:49;;;;;;;13.45;12.20;;;16.90;99.90;;;;;;6271274;22;20012;-85
2023/09/13 01:58:14;;;;;;;22.30;19.45;;;16.90;99.90;;;;;;6244564;23;20012;-86
2023/09/13 02:00:41;;;;;;;18.30;13.75;;;16.90;99.90;;;;;;6219675;23;20433;-86
2023/09/13 02:03:07;;;;;;;22.52;20.23;;;16.90;99.90;;;;;;6219633;23;20386;-85
2023/09/13 02:05:32;;;;;;;15.05;12.73;;;16.90;99.90;;;;;;6220594;23;20024;-85
2023/09/13 02:07:59;;;;;;;15.05;12.10;;;16.90;99.90;;;;;;6220170;23;20023;-85
2023/09/13 02:10:25;;;;;;;20.20;17.30;;;16.90;99.90;;;;;;6219737;23;20058;-85
2023/09/13 02:12:50;;;;;;;12.95;7.75;;;16.90;99.90;;;;;;6218841;23;20020;-86
2023/09/13 02:15:16;;;;;;;17.55;15.73;;;16.90;99.90;;;;;;6220221;23;20016;-86
2023/09/13 02:17:43;;;;;;;23.40;21.20;;;16.80;99.90;;;;;;6245834;23;20039;-86
2023/09/13 02:20:11;;;;;;;16.83;15.38;;;16.80;99.90;;;;;;6271695;22;20362;-86
2023/09/13 02:22:37;;;;;;;17.38;14.30;;;16.80;99.90;;;;;;6246392;23;20065;-86
2023/09/13 02:25:06;;;;;;;19.88;18.27;;;16.60;99.90;;;;;;6220448;23;20023;-86
2023/09/13 02:27:32;;;;;;;21.45;18.83;;;16.70;99.90;;;;;;6221155;23;20023;-86
2023/09/13 02:29:58;;;;;;;21.17;19.35;;;16.70;99.90;;;;;;6220646;23;20046;-86
2023/09/13 02:32:24;;;;;;;20.08;14.95;;;16.70;99.90;;;;;;6220573;23;20008;-86
2023/09/13 02:34:50;;;;;;;16.00;12.98;;;16.70;99.90;;;;;;6220553;23;20013;-85
2023/09/13 02:37:15;;;;;;;16.38;8.43;;;16.70;99.90;;;;;;6220601;23;20019;-86
2023/09/13 02:39:42;;;;;;;16.50;15.00;;;16.70;99.90;;;;;;6245166;23;20019;-86
2023/09/13 02:42:08;;;;;;;17.38;14.15;;;16.70;99.90;;;;;;6220799;23;20022;-86
2023/09/13 02:44:35;;;;;;;18.48;16.70;;;16.70;99.90;;;;;;6271439;22;20046;-86
2023/09/13 02:47:01;;;;;;;18.48;13.13;;;16.70;99.90;;;;;;6219717;23;20071;-86
2023/09/13 02:49:32;;;;;;;17.23;14.52;;;16.70;99.90;;;;;;6219874;23;20440;-86
2023/09/13 02:51:57;;;;;;;15.57;7.03;;;16.80;99.90;;;;;;6219717;23;20019;-86
2023/09/13 02:54:23;;;;;;;20.10;15.60;;;16.90;99.90;;;;;;6220451;23;20016;-86
2023/09/13 02:56:50;;;;;;;16.48;9.63;;;16.80;99.90;;;;;;6220829;23;20080;-86
2023/09/13 02:59:16;;;;;;;16.27;14.70;;;16.80;99.90;;;;;;6271820;22;20014;-86
2023/09/13 03:01:42;;;;;;;14.13;12.75;;;16.70;99.90;;;;;;6220512;23;20036;-86
2023/09/13 03:04:08;;;;;;;19.67;13.07;;;16.80;99.90;;;;;;6220658;23;20016;-86
2023/09/13 03:06:40;;;;;;;20.52;18.52;;;16.30;99.90;;;;;;6246823;23;20031;-87
2023/09/13 03:09:06;;;;;;;17.35;15.10;;;16.80;99.90;;;;;;6220898;23;20022;-86
2023/09/13 03:11:38;;;;;;;18.63;13.65;;;16.80;99.90;;;;;;6221432;23;20016;-86
2023/09/13 03:14:04;;;;;;;11.68;6.97;;;16.80;99.90;;;;;;6222044;23;20016;-86
2023/09/13 03:16:30;;;;;;;16.98;9.77;;;16.80;99.90;;;;;;6220675;23;20012;-87
2023/09/13 03:18:57;;;;;;;9.95;7.80;;;16.80;99.90;;;;;;6222385;23;20030;-86
2023/09/13 03:21:24;;;;;;;21.92;12.15;;;16.80;99.90;;;;;;6272100;22;20016;-86
2023/09/13 03:23:50;;;;;;;12.20;8.38;;;16.80;99.90;;;;;;6220843;23;20016;-86
2023/09/13 03:26:19;;;;;;;15.98;8.23;;;16.80;99.90;;;;;;6221240;23;20011;-86
2023/09/13 03:28:49;;;;;;;15.88;10.52;;;16.80;99.90;;;;;;6246254;23;20471;-86
2023/09/13 03:31:16;;;;;;;18.20;8.93;;;16.80;99.90;;;;;;6220812;23;20008;-86
2023/09/13 03:33:43;;;;;;;13.07;10.20;;;16.80;99.90;;;;;;6221838;23;20402;-86
2023/09/13 03:39:31;;;;;;;18.70;16.90;;;16.80;99.90;;;;;;6230296;23;20023;-86
2023/09/13 03:41:57;;;;;;;19.00;14.85;;;16.70;99.90;;;;;;6219351;23;20508;-85
2023/09/13 03:44:23;;;;;;;11.13;7.20;;;16.70;99.90;;;;;;6218731;23;20024;-86
2023/09/13 03:46:49;;;;;;;19.52;17.73;;;16.70;99.90;;;;;;6194182;23;20023;-86
2023/09/13 03:49:15;;;;;;;9.95;7.30;;;16.70;99.90;;;;;;6219633;23;20023;-85
2023/09/13 03:51:40;;;;;;;11.60;8.52;;;16.70;99.90;;;;;;6218584;23;20016;-86
2023/09/13 03:54:06;;;;;;;17.10;10.77;;;16.70;99.90;;;;;;6218984;23;20466;-86
2023/09/13 03:56:32;;;;;;;18.52;11.95;;;16.70;99.90;;;;;;6220266;23;20032;-85
2023/09/13 03:58:58;;;;;;;19.33;17.15;;;16.70;99.90;;;;;;6251853;22;20034;-85
2023/09/13 04:01:24;;;;;;;14.25;12.85;;;16.70;99.90;;;;;;6220722;23;20016;-86
2023/09/13 04:03:50;;;;;;;22.80;20.60;;;16.80;99.90;;;;;;6221186;22;20070;-85
2023/09/13 04:06:16;;;;;;;17.20;15.63;;;16.70;99.90;;;;;;6222404;23;20027;-87
2023/09/13 04:08:41;;;;;;;17.90;15.20;;;16.70;99.90;;;;;;6196300;23;20012;-86
2023/09/13 04:11:08;;;;;;;15.32;13.15;;;16.70;99.90;;;;;;6220671;23;20306;-86
2023/09/13 04:13:37;;;;;;;12.82;7.75;;;16.70;99.90;;;;;;6220605;23;20009;-86
2023/09/13 04:16:05;;;;;;;12.43;10.68;;;16.70;99.90;;;;;;6220486;23;20087;-86
2023/09/13 04:18:31;;;;;;;14.70;10.75;;;16.60;99.90;;;;;;6221386;23;20019;-86
2023/09/13 04:20:57;;;;;;;11.02;7.82;;;16.70;99.90;;;;;;6247649;23;20044;-87
2023/09/13 04:23:23;;;;;;;13.00;11.52;;;16.60;99.90;;;;;;6217900;23;20019;-86
2023/09/13 04:25:49;;;;;;;12.85;9.70;;;16.60;99.90;;;;;;6243408;23;20012;-85
2023/09/13 04:28:15;;;;;;;11.07;6.45;;;16.70;99.90;;;;;;6217745;23;20070;-86
2023/09/13 04:30:41;;;;;;;14.02;9.63;;;16.60;99.90;;;;;;6242504;23;20394;-87
2023/09/13 04:33:07;;;;;;;19.50;15.30;;;16.60;99.90;;;;;;6217759;23;20013;-87
2023/09/13 04:35:33;;;;;;;12.57;9.15;;;16.60;99.90;;;;;;6218022;23;20039;-86
2023/09/13 04:38:03;;;;;;;19.40;16.92;;;16.60;99.90;;;;;;6217767;23;20263;-87
2023/09/13 04:40:32;;;;;;;19.15;17.50;;;16.50;99.90;;;;;;6217448;23;20091;-87
2023/09/13 04:43:06;;;;;;;18.08;15.38;;;16.40;99.90;;;;;;6216726;23;20004;-85
2023/09/13 04:45:35;;;;;;;25.60;20.08;;;16.40;99.90;;;;;;6242145;23;20023;-86
2023/09/13 04:48:01;;;;;;;20.75;18.65;;;16.30;99.90;;;;;;6217173;23;20012;-86
2023/09/13 04:50:28;;;;;;;21.13;17.30;;;16.20;99.90;;;;;;6242309;23;20009;-87
2023/09/13 04:52:54;;;;;;;19.95;17.90;;;16.10;99.90;;;;;;6267688;22;20004;-87
2023/09/13 04:55:20;;;;;;;53.35;48.95;;;15.80;99.90;;;;;;6267926;22;20009;-86
2023/09/13 04:57:49;;;;;;;21.15;19.02;;;15.90;99.90;;;;;;6215148;23;20073;-86
2023/09/13 05:00:16;;;;;;;19.05;16.88;;;15.80;99.90;;;;;;6242355;23;20012;-82
2023/09/13 05:02:42;;;;;;;20.30;17.92;;;15.70;99.90;;;;;;6216787;23;20494;-86
2023/09/13 05:05:10;;;;;;;18.00;16.20;;;15.60;99.90;;;;;;6216102;23;20058;-87
2023/09/13 05:07:36;;;;;;;26.83;24.48;;;15.30;99.90;;;;;;6244560;22;20066;-86
2023/09/13 05:10:02;;;;;;;17.88;16.10;;;15.40;99.90;;;;;;6223622;23;20087;-85
2023/09/13 05:12:39;;;;;;;27.13;24.65;;;15.30;99.90;;;;;;6249450;23;20172;-84
2023/09/13 05:15:09;;;;;;;22.98;14.07;;;15.30;99.90;;;;;;6223846;23;20044;-86
2023/09/13 05:17:37;;;;;;;22.15;20.25;;;15.20;99.90;;;;;;6248760;23;20012;-85
2023/09/13 05:20:07;;;;;;;19.00;16.85;;;15.10;99.90;;;;;;6223821;23;20028;-86
2023/09/13 05:22:36;;;;;;;22.02;19.95;;;15.10;99.90;;;;;;6225018;23;20016;-87
2023/09/13 05:25:02;;;;;;;18.80;15.43;;;15.10;99.90;;;;;;6226786;23;20016;-87
2023/09/13 05:27:28;;;;;;;20.50;16.50;;;15.10;99.90;;;;;;6227229;23;20050;-87
2023/09/13 05:29:54;;;;;;;19.27;16.17;;;15.30;99.90;;;;;;6227716;23;20023;-86
2023/09/13 05:32:19;;;;;;;20.75;15.70;;;15.10;99.90;;;;;;6227351;23;20140;-87
2023/09/13 05:34:48;;;;;;;18.95;15.70;;;15.30;99.90;;;;;;6226077;23;20152;-87
2023/09/13 05:37:14;;;;;;;22.20;14.60;;;15.00;99.90;;;;;;6227854;23;20055;-86
2023/09/13 05:39:40;;;;;;;20.85;16.25;;;15.00;99.90;;;;;;6229992;23;20016;-87
2023/09/13 05:42:06;;;;;;;19.10;15.45;;;14.90;99.90;;;;;;6231355;23;20026;-88
2023/09/13 05:44:33;;;;;;;51.40;47.55;;;14.90;99.90;;;;;;6231903;23;20039;-88
2023/09/13 05:47:02;;;;;;;16.50;14.70;;;14.70;99.90;;;;;;6231782;23;20027;-89
2023/09/13 05:49:29;;;;;;;17.23;15.18;;;14.00;99.90;;;;;;6233707;23;20023;-89
2023/09/13 05:51:55;;;;;;;19.10;16.23;;;14.60;99.90;;;;;;6232668;23;20020;-89
2023/09/13 05:54:21;;;;;;;22.25;20.10;;;14.50;99.90;;;;;;6231781;23;20016;-87
2023/09/13 05:56:47;;;;;;;20.88;18.00;;;14.70;99.90;;;;;;6256727;23;20012;-89
2023/09/13 05:59:12;;;;;;;22.08;15.15;;;14.50;99.90;;;;;;6231189;23;20016;-87
2023/09/13 06:01:39;;;;;;;18.90;16.05;;;14.40;99.90;;;;;;6231176;23;20318;-88
2023/09/13 06:04:07;;;;;;;18.35;16.52;;;15.20;99.90;;;;;;6231622;23;20105;-89
2023/09/13 06:06:36;;;;;;;18.27;14.27;;;14.50;99.90;;;;;;6231224;23;20024;-87
2023/09/13 06:09:03;;;;;;;22.48;13.75;;;14.20;99.90;;;;;;6230769;23;20446;-88
2023/09/13 06:11:32;;;;;;;16.50;14.20;;;14.40;99.90;;;;;;6230473;23;20012;-88
2023/09/13 06:13:58;;;;;;;19.92;16.23;;;14.50;99.90;;;;;;6230972;23;20012;-88
2023/09/13 06:16:24;;;;;;;20.02;18.13;;;14.40;99.90;;;;;;6230619;23;20036;-88
2023/09/13 06:18:52;;;;;;;28.85;17.92;;;14.40;99.90;;;;;;6230877;23;20020;-87
2023/09/13 06:21:18;;;;;;;18.63;15.95;;;14.40;99.90;;;;;;6229789;23;20020;-87
2023/09/13 06:23:49;;;;;;;33.00;29.95;;;14.40;99.90;;;;;;6230355;23;20091;-87
2023/09/13 06:26:18;;;;;;;22.90;14.82;;;14.40;99.90;;;;;;6229366;23;20091;-87
2023/09/13 06:28:44;;;;;;;23.65;18.80;;;14.40;99.90;;;;;;6254410;23;20027;-88
2023/09/13 06:31:13;;;;;;;25.90;23.00;;;14.40;99.90;;;;;;6229596;23;20355;-87
2023/09/13 06:33:39;;;;;;;38.38;34.33;;;14.30;99.90;;;;;;6228442;23;20008;-87
2023/09/13 06:36:05;;;;;;;25.15;19.00;;;14.30;99.90;;;;;;6227877;23;20036;-85
2023/09/13 06:38:31;;;;;;;30.85;19.48;;;14.30;99.90;;;;;;6227951;23;20012;-86
2023/09/13 06:40:58;;;;;;;80.35;73.45;;;14.30;99.90;;;;;;6253012;23;20146;-87
2023/09/13 06:43:25;;;;;;;33.63;30.52;;;14.20;99.90;;;;;;6228548;23;20016;-86
2023/09/13 06:45:51;;;;;;;20.27;15.88;;;14.20;99.90;;;;;;6254805;23;20020;-86
2023/09/13 06:48:19;;;;;;;22.73;16.90;;;14.20;99.90;;;;;;6228874;23;20052;-86
2023/09/13 06:50:48;;;;;;;28.65;17.00;;;14.20;99.90;;;;;;6229600;23;20028;-86
2023/09/13 06:53:14;;;;;;;27.48;18.73;;;14.40;99.90;;;;;;6230141;23;20043;-87
2023/09/13 06:55:40;;;;;;;29.80;21.05;;;14.30;99.90;;;;;;6231099;23;20186;-88
2023/09/13 06:58:07;;;;;;;23.65;17.13;;;14.20;99.90;;;;;;6231088;23;20070;-87
2023/09/13 07:00:33;;;;;;;31.25;28.25;;;14.00;99.90;;;;;;6229903;23;20091;-87
2023/09/13 07:03:08;;;;;;;23.83;15.75;;;14.20;99.90;;;;;;6229297;23;20023;-87
2023/09/13 07:05:34;;;;;;;26.27;16.38;;;14.10;99.90;;;;;;6228066;23;20018;-87
2023/09/13 07:08:03;;;;;;;27.58;14.23;;;14.30;99.90;;;;;;6230228;23;20298;-87
2023/09/13 07:10:33;;;;;;;27.70;14.48;;;14.40;99.90;;;;;;6229650;23;20452;-86
2023/09/13 07:13:04;;;;;;;28.08;15.57;;;14.50;99.90;;;;;;6230186;23;20013;-87
2023/09/13 07:15:34;;;;;;;23.23;13.43;;;14.50;99.90;;;;;;6229513;23;20471;-86
2023/09/13 07:18:03;;;;;;;24.42;16.33;;;14.50;99.90;;;;;;6230528;23;20103;-88
2023/09/13 07:20:31;;;;;;;24.73;17.00;;;14.50;99.90;;;;;;6231145;23;20023;-87
2023/09/13 07:22:57;;;;;;;30.85;18.70;;;14.50;99.90;;;;;;6229768;23;20012;-88
2023/09/13 07:25:22;;;;;;;30.08;15.00;;;14.60;99.90;;;;;;6226193;23;20458;-86
2023/09/13 07:27:51;;;;;;;30.70;15.15;;;14.20;99.90;;;;;;6255484;23;20016;-87
2023/09/13 07:30:18;;;;;;;32.38;24.83;;;14.80;99.90;;;;;;6229704;23;20012;-88
2023/09/13 07:32:50;;;;;;;23.33;14.38;;;14.70;99.90;;;;;;6230565;23;20344;-87
2023/09/13 07:35:16;;;;;;;24.80;18.42;;;14.70;99.90;;;;;;6230282;23;20016;-86
2023/09/13 07:37:42;;;;;;;24.73;16.25;;;14.80;99.90;;;;;;6280673;22;20063;-88
2023/09/13 07:40:09;;;;;;;20.95;13.25;;;14.80;99.90;;;;;;6230552;23;20038;-87
2023/09/13 07:42:38;;;;;;;21.10;13.95;;;14.90;99.90;;;;;;6229449;23;20013;-87
2023/09/13 07:45:08;;;;;;;21.48;10.73;;;14.90;99.90;;;;;;6229644;23;20131;-86
2023/09/13 07:47:38;;;;;;;18.17;12.10;;;14.90;99.90;;;;;;6230121;23;20016;-87
2023/09/13 07:50:38;;;;;;;24.77;17.33;;;14.90;99.90;;;;;;6228873;23;20020;-87
2023/09/13 07:53:11;;;;;;;20.88;16.50;;;14.80;99.90;;;;;;6230379;23;20024;-87
2023/09/13 07:55:38;;;;;;;20.45;16.27;;;14.70;99.90;;;;;;6230985;23;20015;-87
2023/09/13 07:58:10;;;;;;;19.52;16.52;;;14.70;99.90;;;;;;6230209;23;20020;-87
2023/09/13 08:00:36;;;;;;;22.25;13.85;;;14.70;99.90;;;;;;6230338;23;20039;-86
2023/09/13 08:03:03;;;;;;;17.08;10.43;;;14.80;99.90;;;;;;6230690;23;20020;-87
2023/09/13 08:05:32;;;;;;;17.27;15.45;;;14.80;99.90;;;;;;6229655;23;20020;-87
2023/09/13 08:08:01;;;;;;;15.75;14.15;;;14.90;99.90;;;;;;6229256;23;20016;-87
2023/09/13 08:10:27;;;;;;;21.98;11.43;;;14.90;99.90;;;;;;6229882;23;20036;-87
2023/09/13 08:12:53;;;;;;;17.50;14.93;;;15.00;99.90;;;;;;6229112;23;20020;-88
2023/09/13 08:15:19;;;;;;;19.63;17.88;;;15.10;99.90;;;;;;6229657;23;20063;-86
2023/09/13 08:17:45;;;;;;;18.25;16.40;;;15.10;99.90;;;;;;6229215;23;20026;-86
2023/09/13 08:20:11;;;;;;;17.05;14.48;;;15.10;99.90;;;;;;6253423;23;20020;-86
2023/09/13 08:22:37;;;;;;;17.75;13.23;;;15.20;99.90;;;;;;6229726;23;20012;-87
2023/09/13 08:25:09;;;;;;;15.55;10.50;;;15.20;99.90;;;;;;6255848;23;20034;-87
2023/09/13 08:27:35;;;;;;;17.92;10.90;;;15.20;99.90;;;;;;6229035;23;20081;-87
2023/09/13 08:30:01;;;;;;;16.50;11.85;;;15.20;99.90;;;;;;6229549;23;20016;-87
2023/09/13 08:32:27;;;;;;;20.75;18.60;;;15.40;99.90;;;;;;6229665;23;20019;-87
2023/09/13 08:34:53;;;;;;;16.58;14.48;;;15.50;99.90;;;;;;6229646;23;20016;-86
2023/09/13 08:37:19;;;;;;;18.15;11.00;;;15.60;99.90;;;;;;6229296;23;20009;-87
2023/09/13 08:39:45;;;;;;;20.48;11.65;;;15.60;99.90;;;;;;6254872;23;20327;-86
2023/09/13 08:42:15;;;;;;;18.27;10.68;;;15.80;99.90;;;;;;6231021;23;20456;-86
2023/09/13 08:44:43;;;;;;;16.48;11.98;;;15.90;99.90;;;;;;6230414;23;20093;-87
2023/09/13 08:47:12;;;;;;;13.50;11.40;;;15.90;99.90;;;;;;6230299;23;20019;-87
2023/09/13 08:49:39;;;;;;;12.35;8.60;;;16.10;99.90;;;;;;6255778;23;20016;-86
2023/09/13 08:52:06;;;;;;;13.48;10.85;;;15.90;99.90;;;;;;6230714;23;20076;-85
2023/09/13 08:54:38;;;;;;;16.73;13.68;;;16.00;99.90;;;;;;6230770;23;20013;-86
2023/09/13 08:57:05;;;;;;;18.65;14.32;;;16.00;99.90;;;;;;6230958;23;20066;-86
2023/09/13 08:59:32;;;;;;;11.52;9.80;;;16.00;99.90;;;;;;6229898;23;20059;-86
2023/09/13 09:02:00;;;;;;;17.48;15.35;;;15.90;99.90;;;;;;6230834;23;20012;-86
2023/09/13 09:04:26;;;;;;;14.85;9.85;;;16.00;99.90;;;;;;6229800;23;20015;-87
2023/09/13 09:06:52;;;;;;;12.18;8.13;;;16.00;99.90;;;;;;6225442;23;20099;-87
2023/09/13 09:09:20;;;;;;;17.75;10.65;;;15.90;99.90;;;;;;6216932;23;20012;-87
2023/09/13 09:11:52;;;;;;;14.38;12.82;;;15.90;99.90;;;;;;6216513;23;20004;-87
2023/09/13 09:14:21;;;;;;;21.05;15.95;;;15.80;99.90;;;;;;6242725;23;20016;-87
2023/09/13 09:16:50;;;;;;;15.07;13.48;;;15.70;99.90;;;;;;6217768;23;20023;-86
2023/09/13 09:19:15;;;;;;;16.48;14.13;;;15.50;99.90;;;;;;6242994;23;20035;-87
2023/09/13 09:21:41;;;;;;;20.30;14.10;;;15.60;99.90;;;;;;6243385;23;20012;-86
2023/09/13 09:24:07;;;;;;;15.63;12.73;;;15.50;99.90;;;;;;6217760;23;20098;-87
2023/09/13 09:26:39;;;;;;;23.70;19.30;;;15.50;99.90;;;;;;6216910;23;20016;-87
2023/09/13 09:29:18;;;;;;;14.23;11.35;;;15.50;99.90;;;;;;6242017;23;20058;-86
2023/09/13 09:31:44;;;;;;;18.27;14.88;;;15.70;99.90;;;;;;6216534;23;20004;-87
2023/09/13 09:34:11;;;;;;;16.70;12.07;;;15.80;99.90;;;;;;6241512;23;20458;-86
2023/09/13 09:36:42;;;;;;;18.65;14.05;;;16.10;99.90;;;;;;6215959;23;20008;-86
2023/09/13 09:39:08;;;;;;;22.02;13.48;;;15.90;99.90;;;;;;6241107;23;20008;-86
2023/09/13 09:41:38;;;;;;;24.10;18.10;;;15.90;99.90;;;;;;6215838;23;20055;-86
2023/09/13 09:44:05;;;;;;;21.27;19.17;;;15.90;99.90;;;;;;6215492;23;20087;-87
2023/09/13 09:46:34;;;;;;;16.40;14.50;;;15.80;99.90;;;;;;6215922;23;20020;-87
2023/09/13 09:49:04;;;;;;;19.35;16.25;;;15.60;99.90;;;;;;6216165;23;20039;-88
2023/09/13 09:51:36;;;;;;;16.13;10.85;;;15.50;99.90;;;;;;6216692;23;20059;-88
2023/09/13 09:54:01;;;;;;;23.40;14.57;;;15.50;99.90;;;;;;6216538;23;20019;-88
2023/09/13 09:56:27;;;;;;;19.92;13.48;;;15.50;99.90;;;;;;6216639;23;20008;-88
2023/09/13 09:58:53;;;;;;;20.58;13.15;;;15.60;99.90;;;;;;6242446;23;20334;-88
2023/09/13 10:01:21;;;;;;;18.42;10.38;;;15.60;99.90;;;;;;6216377;23;20182;-88
2023/09/13 10:03:51;;;;;;;16.75;9.27;;;15.60;99.90;;;;;;6242246;23;20065;-88
2023/09/13 10:06:17;;;;;;;24.15;11.98;;;15.60;99.90;;;;;;6216588;23;20039;-89
2023/09/13 10:08:48;;;;;;;20.90;12.55;;;15.60;99.90;;;;;;6216976;23;20439;-88
2023/09/13 10:11:16;;;;;;;21.13;14.70;;;15.60;99.90;;;;;;6216680;23;20008;-88
2023/09/13 10:13:46;;;;;;;22.58;14.95;;;15.60;99.90;;;;;;6215583;23;20015;-87
2023/09/13 10:16:14;;;;;;;20.23;11.15;;;15.80;99.90;;;;;;6215235;23;20012;-87
2023/09/13 10:18:48;;;;;;;20.75;13.95;;;16.00;99.90;;;;;;6214989;23;20005;-87
2023/09/13 10:21:26;;;;;;;20.65;14.93;;;16.10;99.90;;;;;;6240731;23;20023;-87
2023/09/13 10:24:13;;;;;;;19.70;12.45;;;16.10;99.90;;;;;;6240584;23;20027;-87
2023/09/13 10:26:40;;;;;;;15.40;13.27;;;16.30;99.90;;;;;;6240669;23;20012;-87
2023/09/13 10:29:33;;;;;;;15.07;13.45;;;16.30;99.90;;;;;;6215730;23;20466;-87
2023/09/13 10:32:07;;;;;;;18.42;15.00;;;16.40;99.90;;;;;;6215380;23;20105;-87
2023/09/13 10:34:46;;;;;;;17.25;10.10;;;16.50;99.90;;;;;;6215656;23;20009;-87
2023/09/13 10:37:17;;;;;;;17.85;16.33;;;16.50;99.90;;;;;;6215919;23;20465;-87
2023/09/13 10:39:47;;;;;;;16.63;13.90;;;16.50;99.90;;;;;;6215312;23;20016;-87
2023/09/13 10:42:14;;;;;;;19.95;17.95;;;16.50;99.90;;;;;;6215329;23;20087;-87
2023/09/13 10:44:41;;;;;;;14.95;13.45;;;16.60;99.90;;;;;;6265993;22;20455;-87
2023/09/13 10:47:09;;;;;;;18.65;16.95;;;16.70;99.90;;;;;;6264977;22;20023;-86
2023/09/13 10:49:37;;;;;;;17.27;10.95;;;16.80;99.90;;;;;;6213814;23;20016;-87
2023/09/13 10:52:07;;;;;;;13.40;10.85;;;16.90;99.90;;;;;;6239789;23;20019;-87
2023/09/13 10:54:34;;;;;;;18.30;10.82;;;17.00;99.90;;;;;;6214477;23;20012;-86
2023/09/13 10:57:04;;;;;;;17.30;11.88;;;17.10;99.90;;;;;;6214588;23;20016;-86
2023/09/13 10:59:36;;;;;;;17.55;16.10;;;17.20;99.90;;;;;;6265133;22;20048;-86
2023/09/13 11:02:04;;;;;;;13.45;11.63;;;17.10;99.90;;;;;;6240647;23;20091;-87
2023/09/13 11:04:31;;;;;;;13.02;11.25;;;17.20;99.90;;;;;;6214882;23;20534;-87
2023/09/13 11:06:58;;;;;;;12.13;10.27;;;17.30;99.90;;;;;;6214477;23;20023;-87
2023/09/13 11:09:30;;;;;;;12.95;11.60;;;17.30;99.90;;;;;;6215208;23;20023;-87
2023/09/13 11:11:57;;;;;;;14.38;10.82;;;17.30;99.90;;;;;;6214691;23;20016;-87
2023/09/13 11:14:24;;;;;;;16.10;14.48;;;17.50;99.90;;;;;;6214770;23;20066;-87
2023/09/13 11:16:50;;;;;;;16.02;12.57;;;17.50;99.90;;;;;;6239518;23;20364;-86
2023/09/13 11:19:15;;;;;;;27.70;25.70;;;17.60;99.90;;;;;;6215460;23;20450;-87
2023/09/13 11:21:50;;;;;;;17.35;15.77;;;17.60;99.90;;;;;;6214836;23;20342;-86
2023/09/13 11:24:35;;;;;;;17.05;12.93;;;17.70;99.90;;;;;;6265490;22;20008;-87
2023/09/13 11:27:14;;;;;;;16.92;15.50;;;17.90;99.90;;;;;;6239964;23;20020;-86
2023/09/13 11:29:44;;;;;;;15.38;13.85;;;18.00;99.90;;;;;;6213418;23;20012;-86
2023/09/13 11:32:17;;;;;;;10.95;9.85;;;18.00;99.90;;;;;;6239075;23;20221;-86
2023/09/13 11:34:44;;;;;;;75.93;69.70;;;18.10;99.90;;;;;;6264819;22;20019;-87
2023/09/13 11:37:11;;;;;;;17.08;15.43;;;18.00;99.90;;;;;;6213587;23;20527;-86
2023/09/13 11:39:38;;;;;;;9.98;9.07;;;18.00;99.90;;;;;;6213753;23;20039;-87
2023/09/13 11:42:13;;;;;;;9.68;8.68;;;18.00;99.90;;;;;;6220886;23;20063;-86
2023/09/13 11:44:39;;;;;;;8.95;7.82;;;18.10;99.90;;;;;;6225347;23;20012;-85
2023/09/13 11:47:10;;;;;;;11.07;9.93;;;18.10;99.90;;;;;;6252500;23;20050;-85
2023/09/13 11:49:40;;;;;;;18.25;16.77;;;18.10;99.90;;;;;;6251543;23;20055;-86
2023/09/13 11:52:06;;;;;;;12.50;11.48;;;18.20;99.90;;;;;;6225461;23;20016;-85
2023/09/13 11:54:53;;;;;;;11.38;10.35;;;18.30;99.90;;;;;;6251725;23;20044;-85
2023/09/13 11:57:21;;;;;;;18.75;17.17;;;18.40;99.90;;;;;;6278718;22;20012;-85
2023/09/13 11:59:53;;;;;;;12.15;10.45;;;18.50;99.90;;;;;;6226975;23;20067;-85
2023/09/13 12:02:21;;;;;;;13.93;12.75;;;18.50;99.90;;;;;;6225773;23;20094;-85
2023/09/13 12:04:49;;;;;;;9.30;8.18;;;18.50;99.90;;;;;;6251781;23;20493;-86
2023/09/13 12:07:16;;;;;;;10.95;6.43;;;18.70;99.90;;;;;;6250097;23;20020;-86
2023/09/13 12:09:55;;;;;;;8.93;5.43;;;18.70;99.90;;;;;;6227469;23;20102;-86
2023/09/13 12:12:21;;;;;;;13.55;7.07;;;18.70;99.90;;;;;;6225035;23;20042;-85
2023/09/13 12:14:47;;;;;;;9.35;6.20;;;18.50;99.90;;;;;;6250905;23;20016;-86
2023/09/13 12:17:13;;;;;;;9.10;5.45;;;18.70;99.90;;;;;;6227136;23;20043;-84
2023/09/13 12:19:39;;;;;;;13.32;5.50;;;18.70;99.90;;;;;;6252141;23;20020;-85
2023/09/13 12:22:05;;;;;;;8.63;5.55;;;18.70;99.90;;;;;;6225680;23;20444;-87
2023/09/13 12:24:31;;;;;;;10.57;4.93;;;18.80;99.90;;;;;;6252643;23;20012;-85
2023/09/13 12:26:56;;;;;;;14.60;6.43;;;18.60;99.90;;;;;;6252046;23;20018;-85
2023/09/13 12:29:22;;;;;;;11.70;7.10;;;18.70;99.90;;;;;;6251613;23;20016;-86
2023/09/13 12:31:49;;;;;;;10.80;5.65;;;18.80;99.90;;;;;;6225044;23;20008;-85
2023/09/13 12:34:15;;;;;;;13.50;5.15;;;18.70;99.90;;;;;;6250658;23;20378;-85
2023/09/13 12:36:42;;;;;;;11.38;6.22;;;18.70;99.90;;;;;;6226390;23;20042;-85